sensor_id;sensor_type;location;lat;lon;timestamp;pressure;altitude;pressure_sealevel;temperature;humidity
69153;BME280;56261;51.580;4.578;2024-02-21T00:01:34;102358.34;;;9.06;100.00
69153;BME280;56261;51.580;4.578;2024-02-21T00:03:59;102348.06;;;9.02;100.00
69153;BME280;56261;51.580;4.578;2024-02-21T00:06:25;102342.38;;;8.95;100.00
69153;BME280;56261;51.580;4.578;2024-02-21T00:08:51;102335.84;;;8.99;100.00
69153;BME280;56261;51.580;4.578;2024-02-21T00:11:16;102323.75;;;8.95;100.00
69153;BME280;56261;51.580;4.578;2024-02-21T00:13:42;102324.63;;;8.96;100.00
69153;BME280;56261;51.580;4.578;2024-02-21T00:16:07;102321.97;;;8.84;100.00
69153;BME280;56261;51.580;4.578;2024-02-21T00:18:32;102318.81;;;8.90;100.00
69153;BME280;56261;51.580;4.578;2024-02-21T00:20:58;102320.03;;;8.86;100.00
69153;BME280;56261;51.580;4.578;2024-02-21T00:23:23;102321.25;;;8.82;100.00
69153;BME280;56261;51.580;4.578;2024-02-21T00:25:49;102318.09;;;8.77;100.00
69153;BME280;56261;51.580;4.578;2024-02-21T00:28:15;102305.28;;;8.71;100.00
69153;BME280;56261;51.580;4.578;2024-02-21T00:30:40;102308.19;;;8.68;100.00
69153;BME280;56261;51.580;4.578;2024-02-21T00:33:05;102302.25;;;8.76;100.00
69153;BME280;56261;51.580;4.578;2024-02-21T00:35:31;102305.16;;;8.72;100.00
69153;BME280;56261;51.580;4.578;2024-02-21T00:37:56;102295.59;;;8.70;100.00
69153;BME280;56261;51.580;4.578;2024-02-21T00:40:22;102289.19;;;8.72;100.00
69153;BME280;56261;51.580;4.578;2024-02-21T00:42:48;102294.75;;;8.69;100.00
69153;BME280;56261;51.580;4.578;2024-02-21T00:45:14;102297.31;;;8.71;100.00
69153;BME280;56261;51.580;4.578;2024-02-21T00:47:39;102302.00;;;8.79;100.00
69153;BME280;56261;51.580;4.578;2024-02-21T00:50:05;102294.03;;;8.79;100.00
69153;BME280;56261;51.580;4.578;2024-02-21T00:52:32;102300.91;;;8.81;100.00
69153;BME280;56261;51.580;4.578;2024-02-21T00:54:58;102282.06;;;8.84;100.00
69153;BME280;56261;51.580;4.578;2024-02-21T00:57:23;102297.03;;;8.85;100.00
69153;BME280;56261;51.580;4.578;2024-02-21T00:59:49;102279.63;;;8.81;100.00
69153;BME280;56261;51.580;4.578;2024-02-21T01:02:14;102291.13;;;8.82;100.00
69153;BME280;56261;51.580;4.578;2024-02-21T01:04:39;102284.84;;;8.83;100.00
69153;BME280;56261;51.580;4.578;2024-02-21T01:07:05;102277.22;;;8.89;100.00
69153;BME280;56261;51.580;4.578;2024-02-21T01:09:33;102271.66;;;8.81;100.00
69153;BME280;56261;51.580;4.578;2024-02-21T01:11:58;102256.44;;;8.72;100.00
69153;BME280;56261;51.580;4.578;2024-02-21T01:14:24;102264.66;;;8.69;100.00
69153;BME280;56261;51.580;4.578;2024-02-21T01:16:49;102257.41;;;8.71;100.00
69153;BME280;56261;51.580;4.578;2024-02-21T01:19:15;102246.78;;;8.71;100.00
69153;BME280;56261;51.580;4.578;2024-02-21T01:21:40;102245.69;;;8.62;100.00
69153;BME280;56261;51.580;4.578;2024-02-21T01:24:05;102242.41;;;8.70;100.00
69153;BME280;56261;51.580;4.578;2024-02-21T01:26:31;102222.34;;;8.66;100.00
69153;BME280;56261;51.580;4.578;2024-02-21T01:28:56;102245.19;;;8.80;100.00
69153;BME280;56261;51.580;4.578;2024-02-21T01:31:21;102255.56;;;8.83;100.00
69153;BME280;56261;51.580;4.578;2024-02-21T01:33:47;102255.09;;;8.89;100.00
69153;BME280;56261;51.580;4.578;2024-02-21T01:36:13;102253.53;;;8.86;100.00
69153;BME280;56261;51.580;4.578;2024-02-21T01:38:38;102250.50;;;8.91;100.00
69153;BME280;56261;51.580;4.578;2024-02-21T01:41:03;102239.59;;;8.94;100.00
69153;BME280;56261;51.580;4.578;2024-02-21T01:43:29;102238.50;;;8.97;100.00
69153;BME280;56261;51.580;4.578;2024-02-21T01:45:57;102237.41;;;8.88;100.00
69153;BME280;56261;51.580;4.578;2024-02-21T01:48:24;102247.69;;;8.92;100.00
69153;BME280;56261;51.580;4.578;2024-02-21T01:50:50;102242.75;;;8.88;100.00
69153;BME280;56261;51.580;4.578;2024-02-21T01:53:20;102234.56;;;8.80;100.00
69153;BME280;56261;51.580;4.578;2024-02-21T01:55:46;102233.91;;;8.87;100.00
69153;BME280;56261;51.580;4.578;2024-02-21T01:58:15;102221.47;;;8.88;100.00
69153;BME280;56261;51.580;4.578;2024-02-21T02:00:45;102215.41;;;8.86;100.00
69153;BME280;56261;51.580;4.578;2024-02-21T02:03:12;102211.06;;;8.85;100.00
69153;BME280;56261;51.580;4.578;2024-02-21T02:05:45;102203.31;;;8.82;100.00
69153;BME280;56261;51.580;4.578;2024-02-21T02:08:12;102221.00;;;8.83;100.00
69153;BME280;56261;51.580;4.578;2024-02-21T02:10:39;102222.44;;;8.87;100.00
69153;BME280;56261;51.580;4.578;2024-02-21T02:13:05;102219.16;;;8.83;100.00
69153;BME280;56261;51.580;4.578;2024-02-21T02:18:05;102212.63;;;8.87;100.00
69153;BME280;56261;51.580;4.578;2024-02-21T02:20:31;102213.25;;;8.91;100.00
69153;BME280;56261;51.580;4.578;2024-02-21T02:22:58;102207.31;;;8.87;100.00
69153;BME280;56261;51.580;4.578;2024-02-21T02:25:25;102220.13;;;8.93;100.00
69153;BME280;56261;51.580;4.578;2024-02-21T02:27:50;102209.84;;;8.89;100.00
69153;BME280;56261;51.580;4.578;2024-02-21T02:30:16;102210.06;;;8.97;100.00
69153;BME280;56261;51.580;4.578;2024-02-21T02:32:45;102198.00;;;8.93;100.00
69153;BME280;56261;51.580;4.578;2024-02-21T02:35:14;102200.13;;;8.99;100.00
69153;BME280;56261;51.580;4.578;2024-02-21T02:37:39;102190.84;;;8.93;100.00
69153;BME280;56261;51.580;4.578;2024-02-21T02:40:08;102205.84;;;8.94;100.00
69153;BME280;56261;51.580;4.578;2024-02-21T02:42:33;102192.78;;;8.91;100.00
69153;BME280;56261;51.580;4.578;2024-02-21T02:44:59;102189.75;;;8.96;100.00
69153;BME280;56261;51.580;4.578;2024-02-21T02:47:24;102202.56;;;9.02;100.00
69153;BME280;56261;51.580;4.578;2024-02-21T02:49:49;102193.13;;;8.98;100.00
69153;BME280;56261;51.580;4.578;2024-02-21T02:52:17;102182.03;;;8.93;100.00
69153;BME280;56261;51.580;4.578;2024-02-21T02:54:43;102181.66;;;8.98;100.00
69153;BME280;56261;51.580;4.578;2024-02-21T02:57:08;102176.84;;;8.91;100.00
69153;BME280;56261;51.580;4.578;2024-02-21T02:59:35;102171.00;;;8.98;100.00
69153;BME280;56261;51.580;4.578;2024-02-21T03:02:00;102166.91;;;8.93;100.00
69153;BME280;56261;51.580;4.578;2024-02-21T03:04:25;102161.59;;;8.93;100.00
69153;BME280;56261;51.580;4.578;2024-02-21T03:06:51;102127.50;;;8.87;100.00
69153;BME280;56261;51.580;4.578;2024-02-21T03:09:16;102137.13;;;9.00;100.00
69153;BME280;56261;51.580;4.578;2024-02-21T03:11:42;102139.09;;;8.98;100.00
69153;BME280;56261;51.580;4.578;2024-02-21T03:14:09;102136.53;;;8.96;100.00
69153;BME280;56261;51.580;4.578;2024-02-21T03:16:35;102135.47;;;8.87;100.00
69153;BME280;56261;51.580;4.578;2024-02-21T03:19:00;102128.47;;;8.86;100.00
69153;BME280;56261;51.580;4.578;2024-02-21T03:21:26;102120.63;;;8.85;100.00
69153;BME280;56261;51.580;4.578;2024-02-21T03:23:51;102123.91;;;8.77;100.00
69153;BME280;56261;51.580;4.578;2024-02-21T03:26:16;102119.53;;;8.87;100.00
69153;BME280;56261;51.580;4.578;2024-02-21T03:28:43;102116.91;;;8.76;100.00
69153;BME280;56261;51.580;4.578;2024-02-21T03:31:13;102112.53;;;8.75;100.00
69153;BME280;56261;51.580;4.578;2024-02-21T03:33:40;102104.06;;;8.81;100.00
69153;BME280;56261;51.580;4.578;2024-02-21T03:36:06;102109.69;;;8.67;100.00
69153;BME280;56261;51.580;4.578;2024-02-21T03:38:31;102108.31;;;8.72;100.00
69153;BME280;56261;51.580;4.578;2024-02-21T03:40:57;102102.75;;;8.76;100.00
69153;BME280;56261;51.580;4.578;2024-02-21T03:43:22;102099.88;;;8.67;100.00
69153;BME280;56261;51.580;4.578;2024-02-21T03:45:47;102095.75;;;8.75;100.00
69153;BME280;56261;51.580;4.578;2024-02-21T03:48:13;102085.94;;;8.75;100.00
69153;BME280;56261;51.580;4.578;2024-02-21T03:50:38;102080.50;;;8.77;100.00
69153;BME280;56261;51.580;4.578;2024-02-21T03:53:04;102098.78;;;8.70;100.00
69153;BME280;56261;51.580;4.578;2024-02-21T03:55:29;102090.78;;;8.70;100.00
69153;BME280;56261;51.580;4.578;2024-02-21T03:57:54;102098.28;;;8.76;100.00
69153;BME280;56261;51.580;4.578;2024-02-21T04:00:20;102101.06;;;8.75;100.00
69153;BME280;56261;51.580;4.578;2024-02-21T04:02:45;102099.38;;;8.73;100.00
69153;BME280;56261;51.580;4.578;2024-02-21T04:05:10;102109.19;;;8.73;100.00
69153;BME280;56261;51.580;4.578;2024-02-21T04:07:37;102099.22;;;8.75;100.00
69153;BME280;56261;51.580;4.578;2024-02-21T04:10:03;102102.44;;;8.69;100.00
69153;BME280;56261;51.580;4.578;2024-02-21T04:12:28;102099.56;;;8.82;100.00
69153;BME280;56261;51.580;4.578;2024-02-21T04:14:54;102102.94;;;8.84;100.00
69153;BME280;56261;51.580;4.578;2024-02-21T04:17:19;102088.47;;;8.77;100.00
69153;BME280;56261;51.580;4.578;2024-02-21T04:19:44;102096.34;;;8.78;100.00
69153;BME280;56261;51.580;4.578;2024-02-21T04:22:10;102096.84;;;8.72;100.00
69153;BME280;56261;51.580;4.578;2024-02-21T04:24:35;102091.06;;;8.67;100.00
69153;BME280;56261;51.580;4.578;2024-02-21T04:27:00;102092.97;;;8.76;100.00
69153;BME280;56261;51.580;4.578;2024-02-21T04:29:26;102092.16;;;8.64;100.00
69153;BME280;56261;51.580;4.578;2024-02-21T04:31:53;102094.06;;;8.73;100.00
69153;BME280;56261;51.580;4.578;2024-02-21T04:34:18;102101.31;;;8.71;100.00
69153;BME280;56261;51.580;4.578;2024-02-21T04:36:43;102096.00;;;8.71;100.00
69153;BME280;56261;51.580;4.578;2024-02-21T04:39:09;102076.16;;;8.76;100.00
69153;BME280;56261;51.580;4.578;2024-02-21T04:41:35;102071.94;;;8.73;100.00
69153;BME280;56261;51.580;4.578;2024-02-21T04:44:00;102064.91;;;8.72;100.00
69153;BME280;56261;51.580;4.578;2024-02-21T04:46:25;102056.03;;;8.62;100.00
69153;BME280;56261;51.580;4.578;2024-02-21T04:48:51;102067.75;;;8.59;100.00
69153;BME280;56261;51.580;4.578;2024-02-21T04:51:16;102060.28;;;8.53;100.00
69153;BME280;56261;51.580;4.578;2024-02-21T04:53:42;102058.59;;;8.52;100.00
69153;BME280;56261;51.580;4.578;2024-02-21T04:56:07;102055.94;;;8.52;100.00
69153;BME280;56261;51.580;4.578;2024-02-21T04:58:33;102050.72;;;8.62;100.00
69153;BME280;56261;51.580;4.578;2024-02-21T05:01:02;102048.56;;;8.56;100.00
69153;BME280;56261;51.580;4.578;2024-02-21T05:03:27;102038.06;;;8.43;100.00
69153;BME280;56261;51.580;4.578;2024-02-21T05:05:53;102036.59;;;8.39;100.00
69153;BME280;56261;51.580;4.578;2024-02-21T05:08:18;102038.31;;;8.40;100.00
69153;BME280;56261;51.580;4.578;2024-02-21T05:10:44;102025.63;;;8.43;100.00
69153;BME280;56261;51.580;4.578;2024-02-21T05:13:09;102021.03;;;8.45;100.00
69153;BME280;56261;51.580;4.578;2024-02-21T05:15:34;102002.69;;;8.42;100.00
69153;BME280;56261;51.580;4.578;2024-02-21T05:18:00;102007.47;;;8.37;100.00
69153;BME280;56261;51.580;4.578;2024-02-21T05:20:25;102008.00;;;8.42;100.00
69153;BME280;56261;51.580;4.578;2024-02-21T05:22:50;102008.00;;;8.42;100.00
69153;BME280;56261;51.580;4.578;2024-02-21T05:25:16;102007.50;;;8.48;100.00
69153;BME280;56261;51.580;4.578;2024-02-21T05:27:41;101999.38;;;8.39;100.00
69153;BME280;56261;51.580;4.578;2024-02-21T05:30:07;101997.31;;;8.54;100.00
69153;BME280;56261;51.580;4.578;2024-02-21T05:32:32;101984.41;;;8.49;100.00
69153;BME280;56261;51.580;4.578;2024-02-21T05:34:57;101998.03;;;8.56;100.00
69153;BME280;56261;51.580;4.578;2024-02-21T05:37:23;101984.25;;;8.50;100.00
69153;BME280;56261;51.580;4.578;2024-02-21T05:39:49;101985.13;;;8.51;100.00
69153;BME280;56261;51.580;4.578;2024-02-21T05:42:17;101972.72;;;8.61;100.00
69153;BME280;56261;51.580;4.578;2024-02-21T05:44:42;101968.19;;;8.52;100.00
69153;BME280;56261;51.580;4.578;2024-02-21T05:47:08;101974.50;;;8.51;100.00
69153;BME280;56261;51.580;4.578;2024-02-21T05:49:35;101967.41;;;8.40;100.00
69153;BME280;56261;51.580;4.578;2024-02-21T05:52:02;101967.13;;;8.43;100.00
69153;BME280;56261;51.580;4.578;2024-02-21T05:54:27;101965.66;;;8.39;100.00
69153;BME280;56261;51.580;4.578;2024-02-21T05:56:53;101960.59;;;8.47;100.00
69153;BME280;56261;51.580;4.578;2024-02-21T05:59:18;101957.50;;;8.42;100.00
69153;BME280;56261;51.580;4.578;2024-02-21T06:01:43;101952.03;;;8.44;100.00
69153;BME280;56261;51.580;4.578;2024-02-21T06:04:09;101945.03;;;8.43;100.00
69153;BME280;56261;51.580;4.578;2024-02-21T06:06:35;101942.81;;;8.48;100.00
69153;BME280;56261;51.580;4.578;2024-02-21T06:09:03;101934.41;;;8.43;100.00
69153;BME280;56261;51.580;4.578;2024-02-21T06:11:28;101941.66;;;8.41;100.00
69153;BME280;56261;51.580;4.578;2024-02-21T06:13:54;101941.97;;;8.47;100.00
69153;BME280;56261;51.580;4.578;2024-02-21T06:16:19;101932.84;;;8.40;100.00
69153;BME280;56261;51.580;4.578;2024-02-21T06:18:45;101942.09;;;8.46;100.00
69153;BME280;56261;51.580;4.578;2024-02-21T06:21:10;101947.00;;;8.29;100.00
69153;BME280;56261;51.580;4.578;2024-02-21T06:23:37;101939.22;;;8.38;100.00
69153;BME280;56261;51.580;4.578;2024-02-21T06:26:02;101942.72;;;8.38;100.00
69153;BME280;56261;51.580;4.578;2024-02-21T06:28:28;101956.66;;;8.30;100.00
69153;BME280;56261;51.580;4.578;2024-02-21T06:30:53;101953.84;;;8.32;100.00
69153;BME280;56261;51.580;4.578;2024-02-21T06:33:18;101956.66;;;8.30;100.00
69153;BME280;56261;51.580;4.578;2024-02-21T06:35:48;101951.44;;;8.40;100.00
69153;BME280;56261;51.580;4.578;2024-02-21T06:38:13;101945.28;;;8.61;100.00
69153;BME280;56261;51.580;4.578;2024-02-21T06:40:39;101943.81;;;8.47;100.00
69153;BME280;56261;51.580;4.578;2024-02-21T06:43:05;101948.94;;;8.60;100.00
69153;BME280;56261;51.580;4.578;2024-02-21T06:45:30;101929.91;;;8.43;100.00
69153;BME280;56261;51.580;4.578;2024-02-21T06:47:56;101927.03;;;8.35;100.00
69153;BME280;56261;51.580;4.578;2024-02-21T06:50:22;101925.75;;;8.50;100.00
69153;BME280;56261;51.580;4.578;2024-02-21T06:52:47;101918.06;;;8.47;100.00
69153;BME280;56261;51.580;4.578;2024-02-21T06:55:13;101915.13;;;8.50;100.00
69153;BME280;56261;51.580;4.578;2024-02-21T06:57:38;101914.69;;;8.45;100.00
69153;BME280;56261;51.580;4.578;2024-02-21T07:00:04;101917.34;;;8.45;100.00
69153;BME280;56261;51.580;4.578;2024-02-21T07:02:33;101910.78;;;8.49;100.00
69153;BME280;56261;51.580;4.578;2024-02-21T07:04:58;101907.03;;;8.52;100.00
69153;BME280;56261;51.580;4.578;2024-02-21T07:07:24;101907.34;;;8.59;100.00
69153;BME280;56261;51.580;4.578;2024-02-21T07:09:49;101910.41;;;8.54;100.00
69153;BME280;56261;51.580;4.578;2024-02-21T07:12:14;101905.47;;;8.49;100.00
69153;BME280;56261;51.580;4.578;2024-02-21T07:14:40;101897.50;;;8.49;100.00
69153;BME280;56261;51.580;4.578;2024-02-21T07:17:05;101905.28;;;8.41;100.00
69153;BME280;56261;51.580;4.578;2024-02-21T07:19:34;101888.53;;;8.29;100.00
69153;BME280;56261;51.580;4.578;2024-02-21T07:22:00;101891.06;;;8.31;100.00
69153;BME280;56261;51.580;4.578;2024-02-21T07:24:26;101890.75;;;8.45;100.00
69153;BME280;56261;51.580;4.578;2024-02-21T07:26:51;101888.00;;;8.36;100.00
69153;BME280;56261;51.580;4.578;2024-02-21T07:29:17;101872.91;;;8.36;100.00
69153;BME280;56261;51.580;4.578;2024-02-21T07:31:43;101873.25;;;8.43;100.00
69153;BME280;56261;51.580;4.578;2024-02-21T07:34:09;101864.16;;;8.45;100.00
69153;BME280;56261;51.580;4.578;2024-02-21T07:36:34;101850.44;;;8.40;100.00
69153;BME280;56261;51.580;4.578;2024-02-21T07:39:00;101863.22;;;8.46;100.00
69153;BME280;56261;51.580;4.578;2024-02-21T07:41:26;101860.78;;;8.43;100.00
69153;BME280;56261;51.580;4.578;2024-02-21T07:43:52;101858.28;;;8.42;100.00
69153;BME280;56261;51.580;4.578;2024-02-21T07:46:18;101860.06;;;8.41;100.00
69153;BME280;56261;51.580;4.578;2024-02-21T07:48:45;101856.78;;;8.49;100.00
69153;BME280;56261;51.580;4.578;2024-02-21T07:51:10;101854.25;;;8.47;100.00
69153;BME280;56261;51.580;4.578;2024-02-21T07:53:36;101840.00;;;8.48;100.00
69153;BME280;56261;51.580;4.578;2024-02-21T07:56:01;101835.13;;;8.54;100.00
69153;BME280;56261;51.580;4.578;2024-02-21T07:58:27;101839.53;;;8.43;100.00
69153;BME280;56261;51.580;4.578;2024-02-21T08:00:52;101836.06;;;8.52;100.00
69153;BME280;56261;51.580;4.578;2024-02-21T08:03:17;101838.63;;;8.54;100.00
69153;BME280;56261;51.580;4.578;2024-02-21T08:05:43;101829.94;;;8.52;100.00
69153;BME280;56261;51.580;4.578;2024-02-21T08:08:09;101823.81;;;8.61;100.00
69153;BME280;56261;51.580;4.578;2024-02-21T08:10:34;101811.41;;;8.41;100.00
69153;BME280;56261;51.580;4.578;2024-02-21T08:13:00;101817.31;;;8.44;100.00
69153;BME280;56261;51.580;4.578;2024-02-21T08:15:25;101817.22;;;8.56;100.00
69153;BME280;56261;51.580;4.578;2024-02-21T08:17:55;101807.81;;;8.51;100.00
69153;BME280;56261;51.580;4.578;2024-02-21T08:20:24;101809.25;;;8.56;100.00
69153;BME280;56261;51.580;4.578;2024-02-21T08:22:50;101801.69;;;8.61;100.00
69153;BME280;56261;51.580;4.578;2024-02-21T08:25:15;101797.91;;;8.54;100.00
69153;BME280;56261;51.580;4.578;2024-02-21T08:27:40;101801.03;;;8.68;100.00
69153;BME280;56261;51.580;4.578;2024-02-21T08:30:06;101792.50;;;8.65;100.00
69153;BME280;56261;51.580;4.578;2024-02-21T08:32:33;101787.06;;;8.76;100.00
69153;BME280;56261;51.580;4.578;2024-02-21T08:35:00;101780.91;;;8.76;100.00
69153;BME280;56261;51.580;4.578;2024-02-21T08:37:27;101789.84;;;8.75;100.00
69153;BME280;56261;51.580;4.578;2024-02-21T08:39:52;101787.50;;;8.81;100.00
69153;BME280;56261;51.580;4.578;2024-02-21T08:42:18;101776.88;;;8.81;100.00
69153;BME280;56261;51.580;4.578;2024-02-21T08:44:44;101765.09;;;8.84;100.00
69153;BME280;56261;51.580;4.578;2024-02-21T08:47:09;101760.91;;;8.81;100.00
69153;BME280;56261;51.580;4.578;2024-02-21T08:49:35;101769.06;;;8.89;100.00
69153;BME280;56261;51.580;4.578;2024-02-21T08:52:01;101760.38;;;8.87;100.00
69153;BME280;56261;51.580;4.578;2024-02-21T08:54:27;101756.47;;;8.91;100.00
69153;BME280;56261;51.580;4.578;2024-02-21T08:56:54;101754.75;;;8.90;100.00
69153;BME280;56261;51.580;4.578;2024-02-21T08:59:19;101740.09;;;8.96;100.00
69153;BME280;56261;51.580;4.578;2024-02-21T09:01:46;101745.41;;;9.06;100.00
69153;BME280;56261;51.580;4.578;2024-02-21T09:04:11;101733.81;;;9.07;100.00
69153;BME280;56261;51.580;4.578;2024-02-21T09:06:36;101727.66;;;9.16;100.00
69153;BME280;56261;51.580;4.578;2024-02-21T09:09:04;101728.66;;;9.25;100.00
69153;BME280;56261;51.580;4.578;2024-02-21T09:11:30;101719.38;;;9.19;100.00
69153;BME280;56261;51.580;4.578;2024-02-21T09:13:55;101707.06;;;9.18;100.00
69153;BME280;56261;51.580;4.578;2024-02-21T09:16:21;101706.50;;;9.34;100.00
69153;BME280;56261;51.580;4.578;2024-02-21T09:18:47;101698.66;;;9.32;100.00
69153;BME280;56261;51.580;4.578;2024-02-21T09:21:12;101685.63;;;9.29;100.00
69153;BME280;56261;51.580;4.578;2024-02-21T09:23:37;101674.44;;;9.35;100.00
69153;BME280;56261;51.580;4.578;2024-02-21T09:26:03;101663.34;;;9.30;100.00
69153;BME280;56261;51.580;4.578;2024-02-21T09:28:30;101658.47;;;9.35;100.00
69153;BME280;56261;51.580;4.578;2024-02-21T09:30:55;101664.72;;;9.44;100.00
69153;BME280;56261;51.580;4.578;2024-02-21T09:33:20;101654.50;;;9.40;100.00
69153;BME280;56261;51.580;4.578;2024-02-21T09:35:46;101645.69;;;9.39;100.00
69153;BME280;56261;51.580;4.578;2024-02-21T09:38:12;101631.69;;;9.47;100.00
69153;BME280;56261;51.580;4.578;2024-02-21T09:40:38;101622.66;;;9.57;100.00
69153;BME280;56261;51.580;4.578;2024-02-21T09:43:04;101623.53;;;9.58;100.00
69153;BME280;56261;51.580;4.578;2024-02-21T09:45:32;101613.56;;;9.60;100.00
69153;BME280;56261;51.580;4.578;2024-02-21T09:50:51;101612.44;;;9.63;100.00
69153;BME280;56261;51.580;4.578;2024-02-21T09:53:18;101598.44;;;9.51;100.00
69153;BME280;56261;51.580;4.578;2024-02-21T09:55:45;101600.38;;;9.59;100.00
69153;BME280;56261;51.580;4.578;2024-02-21T09:58:12;101594.59;;;9.73;100.00
69153;BME280;56261;51.580;4.578;2024-02-21T10:00:38;101573.50;;;9.52;100.00
69153;BME280;56261;51.580;4.578;2024-02-21T10:03:04;101579.66;;;9.52;100.00
69153;BME280;56261;51.580;4.578;2024-02-21T10:05:35;101553.47;;;9.48;100.00
69153;BME280;56261;51.580;4.578;2024-02-21T10:08:01;101539.50;;;9.73;100.00
69153;BME280;56261;51.580;4.578;2024-02-21T10:10:27;101510.78;;;9.67;100.00
69153;BME280;56261;51.580;4.578;2024-02-21T10:12:53;101491.34;;;9.57;100.00
69153;BME280;56261;51.580;4.578;2024-02-21T10:15:24;101488.22;;;9.62;100.00
69153;BME280;56261;51.580;4.578;2024-02-21T10:17:58;101526.75;;;9.67;100.00
69153;BME280;56261;51.580;4.578;2024-02-21T10:20:24;101547.78;;;9.70;100.00
69153;BME280;56261;51.580;4.578;2024-02-21T10:23:00;101549.34;;;9.63;100.00
69153;BME280;56261;51.580;4.578;2024-02-21T10:25:27;101543.94;;;9.83;100.00
69153;BME280;56261;51.580;4.578;2024-02-21T10:27:52;101547.06;;;9.68;100.00
69153;BME280;56261;51.580;4.578;2024-02-21T10:30:17;101546.19;;;9.77;100.00
69153;BME280;56261;51.580;4.578;2024-02-21T10:32:53;101550.28;;;9.72;100.00
69153;BME280;56261;51.580;4.578;2024-02-21T10:35:31;101546.00;;;9.89;100.00
69153;BME280;56261;51.580;4.578;2024-02-21T10:37:57;101539.34;;;9.75;100.00
69153;BME280;56261;51.580;4.578;2024-02-21T10:40:29;101533.44;;;9.81;100.00
69153;BME280;56261;51.580;4.578;2024-02-21T10:42:57;101542.56;;;9.69;100.00
69153;BME280;56261;51.580;4.578;2024-02-21T10:45:44;101554.22;;;9.68;100.00
69153;BME280;56261;51.580;4.578;2024-02-21T10:48:22;101538.69;;;9.63;100.00
69153;BME280;56261;51.580;4.578;2024-02-21T10:50:57;101525.44;;;9.81;100.00
69153;BME280;56261;51.580;4.578;2024-02-21T10:53:54;101513.94;;;9.81;100.00
69153;BME280;56261;51.580;4.578;2024-02-21T10:56:31;101508.94;;;9.95;100.00
69153;BME280;56261;51.580;4.578;2024-02-21T10:59:01;101495.53;;;10.33;100.00
69153;BME280;56261;51.580;4.578;2024-02-21T11:01:28;101499.16;;;10.14;100.00
69153;BME280;56261;51.580;4.578;2024-02-21T11:03:58;101509.88;;;10.32;100.00
69153;BME280;56261;51.580;4.578;2024-02-21T11:06:24;101499.50;;;10.29;100.00
69153;BME280;56261;51.580;4.578;2024-02-21T11:09:06;101497.13;;;10.26;100.00
69153;BME280;56261;51.580;4.578;2024-02-21T11:11:39;101480.56;;;10.04;100.00
69153;BME280;56261;51.580;4.578;2024-02-21T11:14:18;101461.44;;;10.27;100.00
69153;BME280;56261;51.580;4.578;2024-02-21T11:16:44;101450.78;;;10.27;100.00
69153;BME280;56261;51.580;4.578;2024-02-21T11:19:18;101434.75;;;10.18;100.00
69153;BME280;56261;51.580;4.578;2024-02-21T11:21:43;101443.50;;;10.29;100.00
69153;BME280;56261;51.580;4.578;2024-02-21T11:24:12;101441.91;;;10.18;100.00
69153;BME280;56261;51.580;4.578;2024-02-21T11:26:38;101454.88;;;10.31;100.00
69153;BME280;56261;51.580;4.578;2024-02-21T11:29:03;101442.06;;;10.34;100.00
69153;BME280;56261;51.580;4.578;2024-02-21T11:31:43;101421.41;;;10.18;100.00
69153;BME280;56261;51.580;4.578;2024-02-21T11:34:12;101416.84;;;10.29;100.00
69153;BME280;56261;51.580;4.578;2024-02-21T11:36:51;101414.94;;;10.21;100.00
69153;BME280;56261;51.580;4.578;2024-02-21T11:39:25;101400.00;;;10.28;100.00
69153;BME280;56261;51.580;4.578;2024-02-21T11:42:05;101404.28;;;10.39;100.00
69153;BME280;56261;51.580;4.578;2024-02-21T11:44:31;101402.97;;;10.25;100.00
69153;BME280;56261;51.580;4.578;2024-02-21T11:46:57;101378.44;;;10.22;100.00
69153;BME280;56261;51.580;4.578;2024-02-21T11:49:29;101383.22;;;10.54;100.00
69153;BME280;56261;51.580;4.578;2024-02-21T11:52:01;101377.06;;;10.35;100.00
69153;BME280;56261;51.580;4.578;2024-02-21T11:54:29;101369.16;;;10.26;100.00
69153;BME280;56261;51.580;4.578;2024-02-21T11:56:55;101359.63;;;10.23;100.00
69153;BME280;56261;51.580;4.578;2024-02-21T11:59:20;101356.75;;;10.16;100.00
69153;BME280;56261;51.580;4.578;2024-02-21T12:01:46;101343.06;;;10.29;100.00
69153;BME280;56261;51.580;4.578;2024-02-21T12:04:12;101346.59;;;10.38;100.00
69153;BME280;56261;51.580;4.578;2024-02-21T12:06:38;101346.44;;;10.22;100.00
69153;BME280;56261;51.580;4.578;2024-02-21T12:09:07;101331.00;;;10.25;100.00
69153;BME280;56261;51.580;4.578;2024-02-21T12:11:34;101318.84;;;10.05;100.00
69153;BME280;56261;51.580;4.578;2024-02-21T12:14:00;101318.66;;;10.06;100.00
69153;BME280;56261;51.580;4.578;2024-02-21T12:16:33;101299.69;;;10.27;100.00
69153;BME280;56261;51.580;4.578;2024-02-21T12:18:59;101275.38;;;10.56;100.00
69153;BME280;56261;51.580;4.578;2024-02-21T12:21:33;101263.69;;;10.49;100.00
69153;BME280;56261;51.580;4.578;2024-02-21T12:24:22;101265.94;;;10.36;100.00
69153;BME280;56261;51.580;4.578;2024-02-21T12:26:49;101261.34;;;10.28;100.00
69153;BME280;56261;51.580;4.578;2024-02-21T12:29:14;101254.75;;;10.32;100.00
69153;BME280;56261;51.580;4.578;2024-02-21T12:31:40;101255.81;;;10.22;100.00
69153;BME280;56261;51.580;4.578;2024-02-21T12:34:06;101251.69;;;10.27;100.00
69153;BME280;56261;51.580;4.578;2024-02-21T12:36:32;101247.34;;;10.26;100.00
69153;BME280;56261;51.580;4.578;2024-02-21T12:38:58;101246.47;;;10.17;100.00
69153;BME280;56261;51.580;4.578;2024-02-21T12:41:23;101243.53;;;10.03;100.00
69153;BME280;56261;51.580;4.578;2024-02-21T12:43:50;101240.50;;;9.97;100.00
69153;BME280;56261;51.580;4.578;2024-02-21T12:46:16;101228.66;;;9.92;100.00
69153;BME280;56261;51.580;4.578;2024-02-21T12:48:41;101215.25;;;9.84;100.00
69153;BME280;56261;51.580;4.578;2024-02-21T12:51:07;101228.59;;;10.10;100.00